createdAt,value
2022-11-14T00:05:04.341Z,100428
2022-11-14T00:10:55.811Z,100420
2022-11-14T00:16:46.447Z,100414
2022-11-14T00:22:36.933Z,100411
2022-11-14T00:28:29.409Z,100399
2022-11-14T00:34:20.878Z,100397
2022-11-14T00:40:13.134Z,100395
2022-11-14T00:46:03.924Z,100387
2022-11-14T00:51:56.166Z,100379
2022-11-14T00:57:46.162Z,100373
2022-11-14T01:03:37.172Z,100367
2022-11-14T01:09:28.621Z,100369
2022-11-14T01:15:20.197Z,100367
2022-11-14T01:21:13.590Z,100355
2022-11-14T01:27:05.037Z,100348
2022-11-14T01:32:55.836Z,100341
2022-11-14T01:38:46.215Z,100344
2022-11-14T01:44:37.256Z,100343
2022-11-14T01:50:28.350Z,100333
2022-11-14T01:56:25.335Z,100328
2022-11-14T02:02:17.406Z,100313
2022-11-14T02:08:08.822Z,100313
2022-11-14T02:13:59.557Z,100305
2022-11-14T02:19:50.015Z,100309
2022-11-14T02:25:42.332Z,100315
2022-11-14T02:31:32.529Z,100309
2022-11-14T02:37:23.618Z,100302
2022-11-14T02:43:16.412Z,100308
2022-11-14T02:49:06.740Z,100294
2022-11-14T02:54:59.473Z,100299
2022-11-14T03:01:23.265Z,100302
2022-11-14T03:07:11.204Z,100305
2022-11-14T03:13:00.268Z,100297
2022-11-14T03:18:50.018Z,100303
2022-11-14T03:24:40.838Z,100298
2022-11-14T03:30:31.347Z,100297
2022-11-14T03:36:22.555Z,100291
2022-11-14T03:42:13.898Z,100281
2022-11-14T03:48:05.832Z,100278
2022-11-14T03:53:57.576Z,100275
2022-11-14T04:00:07.249Z,100272
2022-11-14T04:05:59.210Z,100261
2022-11-14T04:12:12.758Z,100249
2022-11-14T04:18:11.620Z,100245
2022-11-14T04:24:26.294Z,100248
2022-11-14T04:30:37.509Z,100243
2022-11-14T04:36:42.557Z,100237
2022-11-14T04:42:46.639Z,100232
2022-11-14T04:48:39.720Z,100230
2022-11-14T04:54:37.553Z,100231
2022-11-14T05:00:35.387Z,100233
2022-11-14T05:06:29.204Z,100221
2022-11-14T05:12:24.565Z,100226
2022-11-14T05:18:18.680Z,100226
2022-11-14T05:24:10.268Z,100226
2022-11-14T05:30:04.075Z,100223
2022-11-14T05:35:57.530Z,100215
2022-11-14T05:41:53.244Z,100207
2022-11-14T05:47:49.327Z,100197
2022-11-14T05:53:43.205Z,100195
2022-11-14T05:59:37.337Z,100192
2022-11-14T06:05:30.163Z,100183
2022-11-14T06:11:30.656Z,100177
2022-11-14T06:17:24.050Z,100174
2022-11-14T06:23:17.520Z,100176
2022-11-14T06:29:14.848Z,100172
2022-11-14T06:35:06.909Z,100165
2022-11-14T06:40:59.536Z,100164
2022-11-14T06:46:53.857Z,100163
2022-11-14T06:52:45.230Z,100169
2022-11-14T06:58:41.372Z,100169
2022-11-14T07:04:31.913Z,100171
2022-11-14T07:10:24.275Z,100175
2022-11-14T07:16:16.163Z,100178
2022-11-14T07:22:07.909Z,100183
2022-11-14T07:27:59.491Z,100182
2022-11-14T07:33:52.203Z,100180
2022-11-14T07:39:44.187Z,100177
2022-11-14T07:45:44.935Z,100178
2022-11-14T07:51:40.936Z,100174
2022-11-14T07:57:41.973Z,100179
2022-11-14T08:03:44.167Z,100174
2022-11-14T08:09:38.468Z,100163
2022-11-14T08:15:29.461Z,100158
2022-11-14T08:21:18.860Z,100147
2022-11-14T08:27:09.688Z,100149
2022-11-14T08:33:02.322Z,100153
2022-11-14T08:39:03.310Z,100162
2022-11-14T08:44:57.576Z,100159
2022-11-14T08:50:51.360Z,100166
2022-11-14T08:56:46.365Z,100177
2022-11-14T09:02:40.332Z,100171
2022-11-14T09:08:35.944Z,100170
2022-11-14T09:14:29.075Z,100159
2022-11-14T09:20:22.125Z,100166
2022-11-14T09:26:34.752Z,100170
2022-11-14T09:32:31.023Z,100172
2022-11-14T09:38:26.357Z,100175
2022-11-14T09:44:24.942Z,100165
2022-11-14T09:50:25.593Z,100181
2022-11-14T09:56:18.335Z,100165
2022-11-14T10:02:11.613Z,100160
2022-11-14T10:08:06.050Z,100157
2022-11-14T10:13:57.265Z,100149
2022-11-14T10:19:48.447Z,100158
2022-11-14T10:25:46.252Z,100170
2022-11-14T10:31:42.919Z,100167
2022-11-14T10:37:35.346Z,100165
2022-11-14T10:43:26.580Z,100161
2022-11-14T10:49:19.033Z,100151
2022-11-14T10:55:11.508Z,100138
2022-11-14T11:01:03.113Z,100129
2022-11-14T11:06:55.746Z,100123
2022-11-14T11:12:47.162Z,100130
2022-11-14T11:18:54.387Z,100121
2022-11-14T11:24:48.996Z,100105
2022-11-14T11:38:28.226Z,100086
2022-11-14T11:45:03.661Z,100086
2022-11-14T12:04:18.767Z,100056
2022-11-14T12:10:26.779Z,100041
2022-11-14T12:16:35.928Z,100031
2022-11-14T12:22:27.420Z,100025
2022-11-14T12:28:22.410Z,100016
2022-11-14T12:34:20.365Z,100009
2022-11-14T12:40:14.656Z,100008
2022-11-14T12:46:12.468Z,100019
2022-11-14T12:52:21.412Z,100014
2022-11-14T12:58:19.568Z,100018
2022-11-14T13:04:13.321Z,100019
2022-11-14T13:10:16.539Z,100018
2022-11-14T13:16:08.696Z,100015
2022-11-14T13:22:03.862Z,100005
2022-11-14T13:28:28.235Z,100010
2022-11-14T13:34:18.494Z,100004
2022-11-14T13:40:12.551Z,100003
2022-11-14T13:46:30.464Z,99989
2022-11-14T13:52:37.041Z,99990
2022-11-14T14:05:08.727Z,99976
2022-11-14T14:17:18.706Z,99971
2022-11-14T14:23:26.982Z,99982
2022-11-14T14:29:33.188Z,99977
2022-11-14T14:36:20.527Z,99974
2022-11-14T14:48:51.393Z,99957
2022-11-14T14:54:57.736Z,99948
2022-11-14T15:01:15.248Z,99944
2022-11-14T15:07:10.003Z,99944
2022-11-14T15:13:03.693Z,99932
2022-11-14T15:18:56.766Z,99929
2022-11-14T15:24:46.576Z,99924
2022-11-14T15:30:50.941Z,99912
2022-11-14T15:37:55.184Z,99913
2022-11-14T15:44:07.820Z,99914
2022-11-14T15:50:00.918Z,99908
2022-11-14T15:55:57.069Z,99905
2022-11-14T16:02:01.263Z,99903
2022-11-14T16:07:53.607Z,99909
2022-11-14T16:13:46.382Z,99907
2022-11-14T16:19:53.107Z,99911
2022-11-14T16:25:47.156Z,99911
2022-11-14T16:31:50.934Z,99916
2022-11-14T16:37:42.694Z,99909
2022-11-14T16:43:36.510Z,99910
2022-11-14T16:49:31.032Z,99904
2022-11-14T16:55:22.709Z,99913
2022-11-14T17:01:34.299Z,99917
2022-11-14T17:07:28.997Z,99916
2022-11-14T17:13:27.554Z,99921
2022-11-14T17:19:19.225Z,99920
2022-11-14T17:25:11.289Z,99920
2022-11-14T17:31:11.719Z,99916
2022-11-14T17:37:06.041Z,99908
2022-11-14T17:42:58.382Z,99921
2022-11-14T17:49:00.026Z,99930
2022-11-14T17:54:51.668Z,99937
2022-11-14T18:00:48.261Z,99946
2022-11-14T18:06:47.110Z,99943
2022-11-14T18:12:52.004Z,99940
2022-11-14T18:18:45.023Z,99940
2022-11-14T18:24:37.558Z,99932
2022-11-14T18:30:46.553Z,99933
2022-11-14T18:37:02.952Z,99940
2022-11-14T18:42:57.176Z,99941
2022-11-14T18:48:54.588Z,99937
2022-11-14T18:54:56.969Z,99939
2022-11-14T19:01:03.138Z,99938
2022-11-14T19:07:01.769Z,99932
2022-11-14T19:13:05.876Z,99928
2022-11-14T19:19:19.128Z,99937
2022-11-14T19:25:13.284Z,99936
2022-11-14T19:31:07.816Z,99925
2022-11-14T19:37:07.647Z,99922
2022-11-14T19:43:04.800Z,99920
2022-11-14T19:49:04.254Z,99920
2022-11-14T19:55:11.300Z,99910
2022-11-14T20:01:06.542Z,99911
2022-11-14T20:07:08.591Z,99908
2022-11-14T20:13:06.712Z,99911
2022-11-14T20:19:06.029Z,99906
2022-11-14T20:25:01.792Z,99904
2022-11-14T20:30:54.066Z,99905
2022-11-14T20:37:13.885Z,99902
2022-11-14T20:43:08.515Z,99901
2022-11-14T20:55:37.826Z,99896
2022-11-14T21:01:33.451Z,99897
2022-11-14T21:14:04.096Z,99886
2022-11-14T21:20:05.951Z,99890
2022-11-14T21:25:57.422Z,99887
2022-11-14T21:31:52.205Z,99884
2022-11-14T21:37:43.240Z,99887
2022-11-14T21:43:39.128Z,99882
2022-11-14T21:49:43.979Z,99870
2022-11-14T21:55:49.025Z,99865
2022-11-14T22:01:41.002Z,99872
2022-11-14T22:07:32.808Z,99867
2022-11-14T22:13:24.075Z,99868
2022-11-14T22:19:16.277Z,99865
2022-11-14T22:25:06.953Z,99879
2022-11-14T22:30:57.862Z,99876
2022-11-14T22:36:49.019Z,99877
2022-11-14T22:42:48.419Z,99878
2022-11-14T22:48:46.408Z,99880
2022-11-14T22:54:39.342Z,99889
2022-11-14T23:00:33.274Z,99883
2022-11-14T23:06:49.765Z,99880
2022-11-14T23:12:55.841Z,99870
2022-11-14T23:18:48.115Z,99872
2022-11-14T23:24:39.923Z,99870
2022-11-14T23:30:39.824Z,99876
2022-11-14T23:36:29.053Z,99867
2022-11-14T23:42:24.403Z,99864
2022-11-14T23:48:20.898Z,99856
